Time;durP1;ratioP1;P1;durP2;ratioP2;P2;SDS_P1;SDS_P2;PMS_P1;PMS_P2;Temp;Humidity;BMP_temperature;BMP_pressure;BME280_temperature;BME280_humidity;BME280_pressure;Samples;Min_cycle;Max_cycle;Signal;HPM_P1;HPM_P2
2021/01/29 00:00:07;;;;;;;1.90;0.20;;;10.00;99.90;;;;;;4989195;28;20453;-67
2021/01/29 00:02:33;;;;;;;1.90;0.30;;;10.00;99.90;;;;;;4990329;28;20524;-66
2021/01/29 00:04:58;;;;;;;1.97;0.30;;;10.00;99.90;;;;;;4988508;28;20494;-67
2021/01/29 00:07:25;;;;;;;1.90;0.20;;;10.00;99.90;;;;;;4989075;28;20187;-67
2021/01/29 00:09:51;;;;;;;1.90;0.20;;;10.00;99.90;;;;;;4989926;28;20207;-67
2021/01/29 00:12:16;;;;;;;3.17;1.17;;;10.00;99.90;;;;;;4988409;28;20509;-67
2021/01/29 00:14:42;;;;;;;3.23;0.80;;;10.00;99.90;;;;;;4988663;28;20212;-67
2021/01/29 00:17:07;;;;;;;1.90;0.30;;;10.10;99.90;;;;;;4989510;28;20282;-67
2021/01/29 00:19:33;;;;;;;2.30;0.40;;;10.00;99.90;;;;;;4990102;28;20192;-67
2021/01/29 00:21:58;;;;;;;2.33;0.50;;;10.00;99.90;;;;;;5009704;28;20183;-67
2021/01/29 00:24:24;;;;;;;1.90;0.20;;;10.10;99.90;;;;;;5004341;28;20243;-67
2021/01/29 00:26:49;;;;;;;1.90;0.20;;;10.00;99.90;;;;;;4992688;28;20647;-67
2021/01/29 00:29:15;;;;;;;1.80;0.20;;;10.00;99.90;;;;;;4995333;28;20446;-67
2021/01/29 00:31:41;;;;;;;1.90;0.20;;;10.00;99.90;;;;;;4997356;28;20225;-67
2021/01/29 00:34:06;;;;;;;1.90;0.20;;;10.00;99.90;;;;;;4991065;28;20220;-67
2021/01/29 00:36:32;;;;;;;1.90;0.20;;;10.00;99.90;;;;;;4994149;28;20649;-67
2021/01/29 00:38:57;;;;;;;2.57;2.00;;;10.00;99.90;;;;;;4991053;28;20621;-67
2021/01/29 00:41:24;;;;;;;1.90;0.20;;;9.90;99.90;;;;;;4992848;28;20191;-67
2021/01/29 00:43:51;;;;;;;1.90;0.20;;;10.00;99.90;;;;;;4995193;28;20206;-67
2021/01/29 00:46:18;;;;;;;1.90;0.20;;;9.90;99.90;;;;;;4987442;28;20497;-68
2021/01/29 00:48:44;;;;;;;1.90;0.20;;;10.00;99.90;;;;;;5008573;28;20481;-67
2021/01/29 00:51:10;;;;;;;2.30;0.70;;;9.90;99.90;;;;;;4993265;28;20443;-67
2021/01/29 00:53:35;;;;;;;1.87;0.20;;;9.90;99.90;;;;;;4989810;28;20512;-67
2021/01/29 00:56:01;;;;;;;31.30;29.60;;;9.90;99.90;;;;;;4992868;28;20183;-67
2021/01/29 00:58:26;;;;;;;1.90;0.20;;;9.90;99.90;;;;;;5005836;28;20214;-67
2021/01/29 01:00:52;;;;;;;1.90;0.20;;;9.90;99.90;;;;;;4990806;28;20515;-67
2021/01/29 01:03:17;;;;;;;1.90;0.20;;;9.90;99.90;;;;;;4994537;28;20199;-67
2021/01/29 01:05:43;;;;;;;1.90;0.40;;;9.90;99.90;;;;;;4992486;28;20211;-67
2021/01/29 01:08:09;;;;;;;1.90;0.30;;;9.90;99.90;;;;;;4989502;28;20192;-67
2021/01/29 01:10:35;;;;;;;1.90;0.20;;;9.90;99.90;;;;;;4993060;28;20621;-67
2021/01/29 01:13:00;;;;;;;1.90;0.20;;;9.90;99.90;;;;;;4994744;28;20207;-67
2021/01/29 01:15:26;;;;;;;1.90;0.20;;;9.90;99.90;;;;;;4990125;28;20239;-68
2021/01/29 01:17:55;;;;;;;2.13;0.57;;;9.90;99.90;;;;;;4992611;28;20191;-67
2021/01/29 01:20:22;;;;;;;1.83;0.30;;;9.90;99.90;;;;;;4990157;28;20186;-67
2021/01/29 01:22:48;;;;;;;1.90;0.20;;;9.90;99.90;;;;;;4991434;28;20445;-67
2021/01/29 01:25:14;;;;;;;1.87;0.20;;;9.90;99.90;;;;;;4992869;28;20466;-66
2021/01/29 01:27:40;;;;;;;1.90;0.20;;;9.90;99.90;;;;;;4986890;28;20317;-66
2021/01/29 01:30:08;;;;;;;2.20;0.40;;;9.90;99.90;;;;;;5007741;28;20478;-67
2021/01/29 01:32:34;;;;;;;1.90;0.20;;;9.90;99.90;;;;;;4991464;28;20219;-67
2021/01/29 01:34:59;;;;;;;1.90;0.30;;;9.90;99.90;;;;;;4990057;28;20821;-67
2021/01/29 01:37:25;;;;;;;1.90;0.20;;;9.90;99.90;;;;;;4992238;28;20195;-67
2021/01/29 01:39:50;;;;;;;1.90;0.20;;;9.90;99.90;;;;;;4986450;28;20187;-67
2021/01/29 01:42:16;;;;;;;1.90;0.40;;;9.90;99.90;;;;;;4990142;28;20211;-67
2021/01/29 01:44:43;;;;;;;1.83;0.20;;;9.90;99.90;;;;;;4995180;28;20198;-67
2021/01/29 01:47:38;;;;;;;2.00;0.30;;;9.90;99.90;;;;;;4988798;28;20233;-67
2021/01/29 01:50:19;;;;;;;1.90;0.30;;;9.90;99.90;;;;;;4986585;28;20522;-67
2021/01/29 01:52:45;;;;;;;1.83;0.20;;;9.90;99.90;;;;;;4989551;28;20489;-67
2021/01/29 01:55:19;;;;;;;2.17;0.60;;;9.90;99.90;;;;;;4990501;28;20548;-67
2021/01/29 01:57:48;;;;;;;1.80;0.20;;;9.90;99.90;;;;;;4989015;28;20191;-67
2021/01/29 02:00:21;;;;;;;2.27;0.73;;;9.90;99.90;;;;;;4989797;28;20534;-67
2021/01/29 02:02:52;;;;;;;1.87;0.20;;;9.90;99.90;;;;;;4990196;28;20446;-67
2021/01/29 02:05:24;;;;;;;1.90;0.30;;;9.90;99.90;;;;;;4986101;28;20454;-67
2021/01/29 02:07:55;;;;;;;1.80;0.30;;;9.90;99.90;;;;;;4990616;28;20482;-68
2021/01/29 02:10:22;;;;;;;1.83;0.30;;;9.90;99.90;;;;;;4992417;28;20477;-67
2021/01/29 02:12:48;;;;;;;1.83;0.20;;;9.90;99.90;;;;;;4987977;28;20489;-67
2021/01/29 02:15:16;;;;;;;1.90;0.30;;;9.90;99.90;;;;;;4990725;28;20945;-68
2021/01/29 02:17:44;;;;;;;2.20;0.80;;;9.90;99.90;;;;;;4990682;28;20684;-68
2021/01/29 02:20:19;;;;;;;2.10;0.83;;;9.90;99.90;;;;;;4988875;28;20537;-67
2021/01/29 02:23:19;;;;;;;2.93;0.40;;;9.80;99.90;;;;;;4982954;28;20866;-67
2021/01/29 02:26:11;;;;;;;1.90;0.40;;;9.80;99.90;;;;;;4989434;28;20490;-67
2021/01/29 02:29:07;;;;;;;1.90;0.40;;;9.70;99.90;;;;;;4987957;28;20534;-67
2021/01/29 02:31:44;;;;;;;1.80;0.20;;;9.70;99.90;;;;;;4988166;28;20470;-67
2021/01/29 02:34:28;;;;;;;3.10;1.07;;;9.70;99.90;;;;;;4988918;28;20504;-67
2021/01/29 02:37:11;;;;;;;4.30;0.87;;;9.70;99.90;;;;;;4990984;28;20512;-67
2021/01/29 02:40:06;;;;;;;1.80;0.20;;;9.70;99.90;;;;;;4984876;28;20921;-67
2021/01/29 02:42:55;;;;;;;1.90;0.30;;;9.70;99.90;;;;;;4990327;28;20798;-67
2021/01/29 02:45:28;;;;;;;1.80;0.20;;;9.70;99.90;;;;;;4989879;28;20461;-66
2021/01/29 02:48:23;;;;;;;2.10;0.67;;;9.70;99.90;;;;;;4988230;28;20598;-67
2021/01/29 02:51:31;;;;;;;1.90;0.40;;;9.70;99.90;;;;;;4993536;28;20442;-66
2021/01/29 02:54:07;;;;;;;1.80;0.20;;;9.60;99.90;;;;;;4983938;28;20473;-66
2021/01/29 02:56:39;;;;;;;2.00;0.50;;;9.60;99.90;;;;;;4989075;28;20497;-66
2021/01/29 02:59:10;;;;;;;1.80;0.20;;;9.60;99.90;;;;;;4984703;28;20442;-66
2021/01/29 03:01:42;;;;;;;1.80;0.20;;;9.60;99.90;;;;;;4987345;28;20438;-66
2021/01/29 03:04:22;;;;;;;1.80;0.20;;;9.60;99.90;;;;;;4989891;28;20458;-67
2021/01/29 03:06:59;;;;;;;1.80;0.20;;;9.60;99.90;;;;;;4989596;28;20446;-67
2021/01/29 03:09:41;;;;;;;1.80;0.20;;;9.60;99.90;;;;;;4989925;28;20554;-67
2021/01/29 03:12:13;;;;;;;3.70;1.13;;;9.60;99.90;;;;;;4993060;28;20500;-66
2021/01/29 03:15:02;;;;;;;1.80;0.20;;;9.60;99.90;;;;;;4995254;28;21043;-67
2021/01/29 03:17:36;;;;;;;2.50;0.73;;;9.60;99.90;;;;;;4991099;28;20439;-67
2021/01/29 03:20:21;;;;;;;1.90;0.30;;;9.60;99.90;;;;;;4992377;28;20434;-67
2021/01/29 03:23:02;;;;;;;2.20;0.53;;;9.60;99.90;;;;;;4991655;28;20446;-68
2021/01/29 03:25:33;;;;;;;1.80;0.20;;;9.60;99.90;;;;;;4990305;28;20461;-69
2021/01/29 03:28:08;;;;;;;1.80;0.20;;;9.60;99.90;;;;;;4984508;28;20443;-67
2021/01/29 03:30:37;;;;;;;2.30;0.60;;;9.60;99.90;;;;;;4987786;28;20453;-67
2021/01/29 03:33:06;;;;;;;1.77;0.20;;;9.60;99.90;;;;;;4986979;28;20462;-67
2021/01/29 03:35:38;;;;;;;1.80;0.20;;;9.60;99.90;;;;;;4987221;28;20923;-67
2021/01/29 03:38:09;;;;;;;2.33;0.80;;;9.60;99.90;;;;;;4989409;28;20481;-67
2021/01/29 03:40:43;;;;;;;1.80;0.20;;;9.70;99.90;;;;;;4989904;28;20434;-67
2021/01/29 03:43:34;;;;;;;1.77;0.20;;;9.70;99.90;;;;;;4989141;28;20442;-67
2021/01/29 03:46:06;;;;;;;1.73;0.20;;;9.70;99.90;;;;;;4990151;28;20816;-67
2021/01/29 03:48:49;;;;;;;2.00;0.60;;;9.70;99.90;;;;;;4991469;28;20442;-67
2021/01/29 03:51:17;;;;;;;1.73;0.20;;;9.70;99.90;;;;;;5001804;28;20505;-66
2021/01/29 03:54:02;;;;;;;1.73;0.30;;;9.70;99.90;;;;;;4997222;28;20441;-67
2021/01/29 03:56:40;;;;;;;1.80;0.20;;;9.70;99.90;;;;;;5007988;28;20414;-66
2021/01/29 03:59:08;;;;;;;1.77;0.27;;;9.70;99.90;;;;;;5010070;28;20473;-66
2021/01/29 04:01:42;;;;;;;1.70;0.20;;;9.70;99.90;;;;;;5010989;28;20445;-67
2021/01/29 04:04:24;;;;;;;2.57;0.70;;;9.70;99.90;;;;;;5004989;28;20949;-66
2021/01/29 04:07:07;;;;;;;2.70;0.73;;;9.70;99.90;;;;;;4993543;28;21015;-67
2021/01/29 04:09:55;;;;;;;2.70;1.00;;;9.70;99.90;;;;;;4991590;28;20448;-67
2021/01/29 04:12:32;;;;;;;1.73;0.20;;;9.70;99.90;;;;;;4991313;28;20636;-67
2021/01/29 04:15:18;;;;;;;2.13;0.63;;;9.70;99.90;;;;;;4996443;28;20983;-67
2021/01/29 04:18:01;;;;;;;3.40;2.00;;;9.80;99.90;;;;;;4994210;28;20434;-67
2021/01/29 04:20:36;;;;;;;2.07;0.43;;;9.70;99.90;;;;;;4995334;28;20569;-66
2021/01/29 04:23:07;;;;;;;1.77;0.20;;;9.70;99.90;;;;;;5011775;28;20446;-67
2021/01/29 04:25:38;;;;;;;1.73;0.20;;;9.70;99.90;;;;;;5013368;28;20457;-67
2021/01/29 04:28:08;;;;;;;1.77;0.20;;;9.70;99.90;;;;;;5009715;28;20489;-67
2021/01/29 04:30:35;;;;;;;2.80;1.60;;;9.80;99.90;;;;;;5007508;28;20435;-67
2021/01/29 04:33:08;;;;;;;2.27;0.97;;;9.80;99.90;;;;;;4994382;28;20493;-67
2021/01/29 04:35:37;;;;;;;2.40;0.60;;;9.80;99.90;;;;;;4991210;28;20481;-67
2021/01/29 04:38:14;;;;;;;4.17;1.33;;;9.80;99.90;;;;;;4993760;28;20613;-67
2021/01/29 04:40:52;;;;;;;2.37;0.97;;;9.80;99.90;;;;;;4996434;28;20564;-67
2021/01/29 04:43:32;;;;;;;1.70;0.20;;;9.80;99.90;;;;;;4990319;28;20476;-67
2021/01/29 04:46:31;;;;;;;1.73;0.20;;;9.80;99.90;;;;;;4992599;28;20864;-67
2021/01/29 04:49:21;;;;;;;1.70;0.20;;;9.80;99.90;;;;;;4994001;28;20434;-67
2021/01/29 04:52:12;;;;;;;2.40;1.00;;;9.80;99.90;;;;;;4993165;28;20557;-67
2021/01/29 04:55:15;;;;;;;1.90;0.50;;;9.80;99.90;;;;;;4988548;28;20457;-67
2021/01/29 04:58:17;;;;;;;3.60;2.30;;;9.80;99.90;;;;;;4990624;28;20814;-67
2021/01/29 05:01:02;;;;;;;1.73;0.20;;;9.80;99.90;;;;;;4990340;28;20524;-67
2021/01/29 05:03:30;;;;;;;1.80;0.20;;;9.90;99.90;;;;;;4991124;28;20474;-67
2021/01/29 05:06:23;;;;;;;1.73;0.20;;;9.90;99.90;;;;;;4988611;28;20451;-67
2021/01/29 05:09:09;;;;;;;2.20;0.60;;;9.90;99.90;;;;;;4989457;28;20501;-67
2021/01/29 05:12:03;;;;;;;2.27;0.83;;;9.90;99.90;;;;;;5000780;28;20473;-67
2021/01/29 05:14:43;;;;;;;1.80;0.30;;;9.90;99.90;;;;;;4990866;28;20599;-67
2021/01/29 05:17:18;;;;;;;2.30;0.73;;;10.00;99.90;;;;;;4987630;28;20437;-67
2021/01/29 05:20:02;;;;;;;2.00;0.53;;;9.90;99.90;;;;;;4990024;28;20497;-67
2021/01/29 05:22:38;;;;;;;2.30;1.27;;;9.90;99.90;;;;;;5010857;28;20471;-67
2021/01/29 05:25:27;;;;;;;2.17;0.40;;;9.90;99.90;;;;;;4988172;28;20450;-67
2021/01/29 05:28:14;;;;;;;1.73;0.20;;;9.90;99.90;;;;;;4983849;28;20531;-66
2021/01/29 05:31:10;;;;;;;1.77;0.20;;;9.90;99.90;;;;;;4994045;28;20612;-67
2021/01/29 05:33:54;;;;;;;3.00;1.10;;;9.90;99.90;;;;;;4989071;28;20446;-67
2021/01/29 05:36:46;;;;;;;2.33;0.73;;;9.90;99.90;;;;;;4987407;28;20452;-67
2021/01/29 05:39:30;;;;;;;2.43;0.50;;;9.80;99.90;;;;;;4989556;28;20450;-66
2021/01/29 05:42:17;;;;;;;1.80;0.30;;;9.80;99.90;;;;;;4989689;28;20533;-67
2021/01/29 05:44:51;;;;;;;3.70;1.13;;;9.80;99.90;;;;;;4988032;28;20563;-67
2021/01/29 05:47:38;;;;;;;2.53;0.77;;;9.80;99.90;;;;;;4991056;28;20611;-68
2021/01/29 05:50:24;;;;;;;2.07;0.70;;;9.80;99.90;;;;;;4991908;28;20453;-67
2021/01/29 05:53:27;;;;;;;2.70;0.57;;;9.80;99.90;;;;;;4991078;28;20918;-67
2021/01/29 05:56:07;;;;;;;1.70;0.20;;;9.80;99.90;;;;;;4990923;28;20466;-66
2021/01/29 05:59:17;;;;;;;1.80;0.40;;;9.80;99.90;;;;;;4988320;28;20438;-66
2021/01/29 06:02:11;;;;;;;1.90;0.50;;;9.80;99.90;;;;;;4984092;28;20806;-66
2021/01/29 06:04:56;;;;;;;1.70;0.20;;;9.70;99.90;;;;;;4990180;28;20528;-66
2021/01/29 06:07:44;;;;;;;1.73;0.20;;;9.70;99.90;;;;;;4988032;28;20587;-66
2021/01/29 06:10:47;;;;;;;1.90;0.50;;;9.70;99.90;;;;;;4985881;28;20457;-67
2021/01/29 06:13:35;;;;;;;7.00;0.50;;;9.70;99.90;;;;;;4984099;28;20832;-66
2021/01/29 06:16:15;;;;;;;1.77;0.20;;;9.70;99.90;;;;;;4988894;28;20999;-66
2021/01/29 06:19:09;;;;;;;1.80;0.40;;;9.70;99.90;;;;;;4990289;28;20489;-66
2021/01/29 06:22:12;;;;;;;1.80;0.20;;;9.70;99.90;;;;;;4986329;28;20453;-66
2021/01/29 06:25:14;;;;;;;1.73;0.20;;;9.60;99.90;;;;;;4989927;28;20489;-66
2021/01/29 06:28:11;;;;;;;1.80;0.20;;;9.70;99.90;;;;;;4991371;28;20442;-66
2021/01/29 06:30:57;;;;;;;1.77;0.20;;;9.70;99.90;;;;;;4991635;28;20443;-66
2021/01/29 06:34:14;;;;;;;2.13;0.43;;;9.70;99.90;;;;;;4989164;28;20988;-66
2021/01/29 06:37:19;;;;;;;1.80;0.30;;;9.70;99.90;;;;;;4990070;28;20446;-66
2021/01/29 06:40:08;;;;;;;1.70;0.20;;;9.60;99.90;;;;;;4983964;28;20437;-66
2021/01/29 06:43:01;;;;;;;1.77;0.20;;;9.60;99.90;;;;;;4989758;28;20886;-66
2021/01/29 06:45:49;;;;;;;2.80;0.67;;;9.70;99.90;;;;;;4991787;28;20465;-66
2021/01/29 06:48:14;;;;;;;1.97;0.50;;;9.70;99.90;;;;;;4994511;28;20453;-66
2021/01/29 06:51:01;;;;;;;2.10;0.60;;;9.70;99.90;;;;;;4992060;28;20793;-66
2021/01/29 06:53:59;;;;;;;1.80;0.40;;;9.70;99.90;;;;;;4990092;28;20682;-66
2021/01/29 06:56:32;;;;;;;1.90;0.57;;;9.70;99.90;;;;;;4990856;28;20474;-66
2021/01/29 06:59:07;;;;;;;1.97;0.57;;;9.70;99.90;;;;;;4986489;28;20449;-66
2021/01/29 07:01:57;;;;;;;1.90;0.50;;;9.70;99.90;;;;;;4990932;28;20485;-66
2021/01/29 07:04:40;;;;;;;1.80;0.30;;;9.80;99.90;;;;;;4991117;28;20481;-66
2021/01/29 07:07:25;;;;;;;1.80;0.30;;;9.80;99.90;;;;;;4985650;28;20622;-66
2021/01/29 07:10:25;;;;;;;2.20;0.43;;;9.80;99.90;;;;;;4990566;28;20536;-67
2021/01/29 07:13:18;;;;;;;3.27;0.40;;;9.80;99.90;;;;;;4996172;28;20554;-67
2021/01/29 07:16:05;;;;;;;2.00;0.30;;;9.70;99.90;;;;;;4991060;28;20465;-66
2021/01/29 07:18:55;;;;;;;1.80;0.20;;;9.70;99.90;;;;;;4989012;28;20886;-67
2021/01/29 07:21:43;;;;;;;1.80;0.20;;;9.50;99.90;;;;;;5002708;28;20442;-66
2021/01/29 07:24:23;;;;;;;1.90;0.30;;;9.50;99.90;;;;;;4985548;28;20462;-66
2021/01/29 07:27:07;;;;;;;1.90;0.30;;;9.40;99.90;;;;;;4989284;28;20492;-67
2021/01/29 07:30:11;;;;;;;2.40;0.47;;;9.40;99.90;;;;;;4988441;28;20926;-66
2021/01/29 07:32:53;;;;;;;1.90;0.33;;;9.40;99.90;;;;;;4988268;28;20474;-66
2021/01/29 07:35:42;;;;;;;1.90;0.30;;;9.40;99.90;;;;;;4993455;28;20497;-67
2021/01/29 07:38:32;;;;;;;1.93;0.30;;;9.30;99.90;;;;;;4974761;28;20434;-66
2021/01/29 07:41:33;;;;;;;3.33;0.33;;;9.30;99.90;;;;;;4993340;28;20462;-67
2021/01/29 07:44:20;;;;;;;2.30;0.50;;;9.30;99.90;;;;;;4990704;28;20560;-66
2021/01/29 07:47:04;;;;;;;2.13;0.40;;;9.20;99.90;;;;;;4996487;28;20473;-66
2021/01/29 07:49:55;;;;;;;5.40;1.20;;;9.20;99.90;;;;;;4995059;28;21059;-67
2021/01/29 07:52:42;;;;;;;8.03;1.67;;;9.10;99.90;;;;;;4993004;28;20470;-66
2021/01/29 07:55:23;;;;;;;3.07;1.07;;;9.10;99.90;;;;;;4992705;28;20498;-66
2021/01/29 07:57:57;;;;;;;2.90;0.77;;;9.00;99.90;;;;;;4996237;28;20465;-66
2021/01/29 08:01:00;;;;;;;3.20;0.40;;;9.00;99.90;;;;;;4995577;28;20466;-66
2021/01/29 08:03:59;;;;;;;1.80;0.20;;;9.00;99.90;;;;;;4990491;28;20450;-66
2021/01/29 08:06:31;;;;;;;1.90;0.30;;;8.90;99.90;;;;;;4989215;28;20438;-67
2021/01/29 08:09:16;;;;;;;2.00;0.40;;;9.00;99.90;;;;;;4996122;28;20527;-66
2021/01/29 08:11:47;;;;;;;1.80;0.30;;;9.00;99.90;;;;;;4991490;28;20473;-66
2021/01/29 08:14:27;;;;;;;1.87;0.20;;;9.00;99.90;;;;;;4990535;28;20484;-66
2021/01/29 08:17:31;;;;;;;1.90;0.33;;;9.00;99.90;;;;;;4995348;28;20456;-66
2021/01/29 08:20:15;;;;;;;1.80;0.20;;;9.00;99.90;;;;;;4993776;28;20422;-67
2021/01/29 08:23:10;;;;;;;2.55;0.32;;;9.00;99.90;;;;;;4993506;28;20443;-66
2021/01/29 08:25:53;;;;;;;2.00;0.30;;;9.00;99.90;;;;;;4991813;28;20199;-66
2021/01/29 08:28:40;;;;;;;1.83;0.20;;;9.00;99.90;;;;;;4991928;28;20894;-66
2021/01/29 08:31:24;;;;;;;1.90;0.37;;;9.00;99.90;;;;;;4994685;28;20418;-66
2021/01/29 08:34:08;;;;;;;1.80;0.20;;;9.00;99.90;;;;;;4994265;28;20469;-66
2021/01/29 08:36:42;;;;;;;2.20;0.40;;;9.10;99.90;;;;;;4992219;28;20445;-67
2021/01/29 08:39:16;;;;;;;1.90;0.30;;;9.20;99.90;;;;;;4995376;28;20438;-67
2021/01/29 08:42:03;;;;;;;2.00;0.30;;;9.10;99.90;;;;;;4993749;28;20440;-66
2021/01/29 08:44:58;;;;;;;1.80;0.20;;;9.20;99.90;;;;;;4993288;28;21007;-66
2021/01/29 08:47:42;;;;;;;4.33;0.50;;;9.20;99.90;;;;;;4973499;28;20445;-66
2021/01/29 08:50:22;;;;;;;2.30;0.43;;;9.20;99.90;;;;;;4999065;28;20437;-67
2021/01/29 08:53:06;;;;;;;1.90;0.30;;;9.30;99.90;;;;;;5007062;28;20470;-67
2021/01/29 08:55:57;;;;;;;1.80;0.20;;;9.30;99.90;;;;;;5007972;28;20482;-68
2021/01/29 08:58:41;;;;;;;1.90;0.20;;;9.20;99.90;;;;;;5007542;28;20435;-68
2021/01/29 09:01:51;;;;;;;1.90;0.20;;;9.30;99.90;;;;;;4996477;28;20458;-68
2021/01/29 09:04:47;;;;;;;1.90;0.30;;;9.40;99.90;;;;;;4991868;28;20529;-68
2021/01/29 09:07:31;;;;;;;2.00;0.30;;;9.60;99.90;;;;;;5006950;28;20507;-68
2021/01/29 09:10:25;;;;;;;2.50;0.40;;;9.60;99.90;;;;;;4991663;28;20434;-67
2021/01/29 09:13:03;;;;;;;1.90;0.30;;;9.60;99.90;;;;;;5000700;28;21000;-68
2021/01/29 09:15:51;;;;;;;2.97;0.40;;;9.60;99.90;;;;;;4992760;28;20565;-64
2021/01/29 09:18:17;;;;;;;1.90;0.20;;;9.70;99.90;;;;;;4991492;28;20445;-64
2021/01/29 09:20:59;;;;;;;3.23;0.33;;;9.60;99.90;;;;;;4994822;28;20430;-64
2021/01/29 09:23:40;;;;;;;2.97;0.50;;;9.70;99.90;;;;;;4992786;28;20226;-64
2021/01/29 09:26:29;;;;;;;2.57;0.50;;;9.70;99.90;;;;;;4991614;28;20446;-64
2021/01/29 09:29:02;;;;;;;1.90;0.20;;;9.70;99.90;;;;;;4992585;28;20434;-65
2021/01/29 09:31:33;;;;;;;2.40;0.30;;;9.70;99.90;;;;;;4997319;28;20505;-65
2021/01/29 09:34:07;;;;;;;2.67;0.50;;;9.80;99.90;;;;;;4991744;28;20553;-67
2021/01/29 09:36:47;;;;;;;3.50;0.53;;;9.90;99.90;;;;;;4993499;28;20464;-67
2021/01/29 09:39:34;;;;;;;3.80;1.40;;;9.90;99.90;;;;;;4988702;28;20450;-66
2021/01/29 09:42:08;;;;;;;2.60;0.53;;;9.90;99.90;;;;;;4991927;28;20555;-66
2021/01/29 09:44:37;;;;;;;5.10;0.63;;;10.10;99.90;;;;;;4989167;28;20469;-66
2021/01/29 09:47:04;;;;;;;1.90;0.20;;;10.10;99.90;;;;;;4991934;28;20529;-67
2021/01/29 09:49:35;;;;;;;2.00;0.50;;;10.20;99.90;;;;;;4994004;28;20847;-67
2021/01/29 09:52:20;;;;;;;2.50;0.80;;;10.20;99.90;;;;;;4996561;28;20462;-67
2021/01/29 09:55:18;;;;;;;1.90;0.20;;;10.30;99.90;;;;;;4991709;28;20454;-68
2021/01/29 09:58:06;;;;;;;2.90;0.70;;;10.30;99.90;;;;;;4990726;28;20462;-67
2021/01/29 10:00:37;;;;;;;1.90;0.20;;;10.40;99.90;;;;;;4993119;28;20498;-66
2021/01/29 10:03:25;;;;;;;3.63;1.20;;;10.40;99.90;;;;;;4990199;28;20794;-67
2021/01/29 10:05:54;;;;;;;6.20;1.60;;;10.40;99.90;;;;;;4999761;28;20533;-67
2021/01/29 10:08:35;;;;;;;6.20;1.80;;;10.50;99.90;;;;;;4999072;28;20439;-68
2021/01/29 10:11:16;;;;;;;2.77;0.57;;;10.50;99.90;;;;;;4993248;28;20447;-69
2021/01/29 10:14:02;;;;;;;5.50;1.10;;;10.50;99.90;;;;;;5009171;28;20525;-67
2021/01/29 10:16:33;;;;;;;5.97;1.30;;;10.60;99.90;;;;;;4994391;28;20469;-68
2021/01/29 10:19:27;;;;;;;1.90;0.20;;;10.60;99.90;;;;;;4995469;28;20460;-67
2021/01/29 10:21:58;;;;;;;1.90;0.20;;;10.60;99.90;;;;;;4994143;28;20438;-67
2021/01/29 10:24:32;;;;;;;8.03;1.20;;;10.60;99.90;;;;;;5008140;28;20471;-67
2021/01/29 10:27:05;;;;;;;4.20;1.07;;;10.60;99.90;;;;;;4988721;28;20545;-67
2021/01/29 10:29:34;;;;;;;5.47;1.43;;;10.60;99.90;;;;;;4989158;28;20458;-68
2021/01/29 10:32:22;;;;;;;1.90;0.30;;;10.60;99.90;;;;;;4991015;28;20999;-67
2021/01/29 10:35:17;;;;;;;2.83;0.53;;;10.60;99.90;;;;;;4992222;28;20502;-69
2021/01/29 10:38:10;;;;;;;2.93;0.40;;;10.60;99.90;;;;;;4989507;28;20445;-68
2021/01/29 10:40:40;;;;;;;2.77;1.23;;;10.60;99.90;;;;;;4993974;28;20450;-68
2021/01/29 10:43:24;;;;;;;1.97;0.37;;;10.60;99.90;;;;;;4996729;28;20438;-68
2021/01/29 10:46:08;;;;;;;5.63;1.40;;;10.50;99.90;;;;;;5018961;28;20470;-68
2021/01/29 10:48:52;;;;;;;3.90;1.07;;;10.60;99.90;;;;;;5004262;28;20837;-67
2021/01/29 10:51:36;;;;;;;6.57;1.80;;;10.60;99.90;;;;;;5015549;28;20504;-67
2021/01/29 10:54:05;;;;;;;5.03;1.50;;;10.60;99.90;;;;;;4989817;28;20454;-67
2021/01/29 10:56:37;;;;;;;2.37;0.60;;;10.60;99.90;;;;;;4993626;28;20569;-67
2021/01/29 10:59:19;;;;;;;3.37;0.70;;;10.60;99.90;;;;;;4989354;28;20435;-67
2021/01/29 11:01:54;;;;;;;6.53;1.23;;;10.70;99.90;;;;;;5003920;28;20446;-66
2021/01/29 11:04:27;;;;;;;2.27;0.60;;;10.70;99.90;;;;;;4993221;28;20470;-67
2021/01/29 11:07:01;;;;;;;3.17;0.87;;;10.80;99.90;;;;;;4987324;28;20446;-66
2021/01/29 11:09:29;;;;;;;5.50;0.97;;;10.80;99.90;;;;;;4990352;28;20940;-66
2021/01/29 11:12:15;;;;;;;4.77;1.57;;;10.70;99.90;;;;;;4993671;28;20526;-66
2021/01/29 11:14:57;;;;;;;12.13;1.70;;;10.80;99.90;;;;;;4987488;28;20852;-66
2021/01/29 11:17:30;;;;;;;1.80;0.20;;;10.70;99.90;;;;;;4992948;28;20520;-67
2021/01/29 11:19:57;;;;;;;3.63;1.07;;;10.70;99.90;;;;;;4987356;28;20439;-66
2021/01/29 11:23:00;;;;;;;1.90;0.20;;;10.70;99.90;;;;;;4989510;28;20821;-66
2021/01/29 11:25:44;;;;;;;2.73;0.97;;;10.70;99.90;;;;;;4993576;28;20476;-66
2021/01/29 11:28:33;;;;;;;2.83;0.77;;;10.70;99.90;;;;;;4992731;28;20474;-66
2021/01/29 11:31:11;;;;;;;2.07;0.43;;;10.70;99.90;;;;;;4991457;28;20450;-66
2021/01/29 11:33:39;;;;;;;3.50;1.47;;;10.70;99.90;;;;;;5038226;22;20531;-62
2021/01/29 11:36:26;;;;;;;2.60;1.07;;;10.70;99.90;;;;;;5024503;28;20961;-61
2021/01/29 11:39:14;;;;;;;1.83;0.20;;;10.70;99.90;;;;;;5029561;28;20961;-61
2021/01/29 11:42:07;;;;;;;2.67;0.80;;;10.70;99.90;;;;;;5028805;28;20436;-61
2021/01/29 11:44:54;;;;;;;2.33;0.63;;;10.70;99.90;;;;;;5008355;28;20495;-61
2021/01/29 11:47:34;;;;;;;9.30;0.70;;;10.80;99.90;;;;;;5007302;28;20437;-61
2021/01/29 11:50:28;;;;;;;3.50;0.53;;;10.70;99.90;;;;;;5007719;28;20507;-61
2021/01/29 11:53:18;;;;;;;1.80;0.20;;;10.70;99.90;;;;;;5006358;28;20469;-61
2021/01/29 11:55:48;;;;;;;2.53;0.70;;;10.70;99.90;;;;;;5007665;28;20919;-60
2021/01/29 11:58:29;;;;;;;3.70;0.60;;;10.80;99.90;;;;;;5010145;28;20438;-60
2021/01/29 12:01:14;;;;;;;2.20;0.50;;;10.80;99.90;;;;;;5008757;28;20448;-62
2021/01/29 12:03:46;;;;;;;3.83;0.80;;;10.80;99.90;;;;;;5009959;28;20494;-60
2021/01/29 12:06:18;;;;;;;3.07;0.80;;;10.80;99.90;;;;;;5004498;28;20438;-60
2021/01/29 12:09:08;;;;;;;7.00;1.20;;;10.90;99.90;;;;;;5009090;28;20948;-61
2021/01/29 12:11:57;;;;;;;1.90;0.30;;;10.90;99.90;;;;;;5005657;28;20774;-61
2021/01/29 12:14:55;;;;;;;2.30;0.60;;;10.90;99.90;;;;;;5022065;28;20571;-61
2021/01/29 12:17:29;;;;;;;4.97;2.20;;;11.00;99.90;;;;;;5006273;28;20517;-61
2021/01/29 12:20:26;;;;;;;2.77;0.50;;;10.90;99.90;;;;;;5004884;28;20524;-61
2021/01/29 12:23:22;;;;;;;2.77;0.50;;;10.90;99.90;;;;;;5005467;28;20469;-61
2021/01/29 12:25:57;;;;;;;1.80;0.20;;;11.00;99.90;;;;;;5012887;28;20448;-60
2021/01/29 12:28:32;;;;;;;3.60;1.07;;;11.10;99.90;;;;;;5012587;28;20435;-62
2021/01/29 12:31:25;;;;;;;3.50;0.90;;;11.10;99.90;;;;;;5012619;28;20449;-61
2021/01/29 12:33:51;;;;;;;2.00;0.30;;;11.10;99.90;;;;;;5002077;28;20802;-61
2021/01/29 12:36:20;;;;;;;2.97;0.73;;;11.20;99.90;;;;;;5013531;28;20472;-61
2021/01/29 12:39:24;;;;;;;1.80;0.27;;;11.30;99.90;;;;;;5009737;28;20293;-61
2021/01/29 12:42:08;;;;;;;3.50;1.20;;;11.30;99.90;;;;;;4991509;28;20538;-60
2021/01/29 12:44:48;;;;;;;5.40;0.87;;;11.30;99.90;;;;;;5010431;28;20487;-61
2021/01/29 12:47:36;;;;;;;2.40;0.80;;;11.40;99.90;;;;;;5013361;28;20429;-60
2021/01/29 12:50:20;;;;;;;4.37;0.97;;;11.40;99.90;;;;;;5009396;28;20936;-61
2021/01/29 12:52:54;;;;;;;1.80;0.20;;;11.40;99.90;;;;;;5010915;28;20473;-61
2021/01/29 12:55:23;;;;;;;5.50;0.80;;;11.40;99.90;;;;;;5011255;28;20495;-61
2021/01/29 12:58:08;;;;;;;2.73;0.40;;;11.50;99.90;;;;;;5018535;28;20456;-62
2021/01/29 13:00:41;;;;;;;2.50;1.23;;;11.60;99.90;;;;;;5010037;28;20501;-61
2021/01/29 13:03:18;;;;;;;5.20;0.57;;;11.60;99.90;;;;;;5006001;28;20488;-62
2021/01/29 13:06:13;;;;;;;7.80;2.30;;;11.60;99.90;;;;;;5008340;28;20979;-61
2021/01/29 13:09:10;;;;;;;4.70;2.97;;;11.50;99.90;;;;;;5010872;28;20522;-60
2021/01/29 13:12:12;;;;;;;2.50;0.53;;;11.40;99.90;;;;;;5006200;28;20444;-60
2021/01/29 13:15:02;;;;;;;1.80;0.20;;;11.40;99.90;;;;;;5008932;28;20439;-61
2021/01/29 13:17:32;;;;;;;4.63;1.17;;;11.40;99.90;;;;;;5011772;28;20441;-60
2021/01/29 13:20:12;;;;;;;4.67;1.33;;;11.50;99.90;;;;;;5008579;28;20448;-61
2021/01/29 13:22:49;;;;;;;6.07;0.83;;;11.50;99.90;;;;;;5009942;28;20555;-60
2021/01/29 13:25:29;;;;;;;1.80;0.20;;;11.40;99.90;;;;;;5006387;28;20549;-60
2021/01/29 13:27:57;;;;;;;2.63;0.50;;;11.40;99.90;;;;;;5005129;28;20996;-60
2021/01/29 13:30:26;;;;;;;3.33;0.73;;;11.30;99.90;;;;;;5021341;28;20488;-60
2021/01/29 13:32:52;;;;;;;2.30;0.53;;;11.30;99.90;;;;;;5013573;28;20832;-60
2021/01/29 13:35:36;;;;;;;4.17;0.90;;;11.20;99.90;;;;;;5008731;28;20537;-62
2021/01/29 13:38:12;;;;;;;1.93;0.40;;;11.20;99.90;;;;;;5007257;28;20468;-61
2021/01/29 13:40:39;;;;;;;2.40;0.50;;;11.20;99.90;;;;;;5006945;28;20484;-62
2021/01/29 13:43:26;;;;;;;4.33;0.80;;;11.30;99.90;;;;;;5011660;28;20461;-60
2021/01/29 13:46:01;;;;;;;1.80;0.20;;;11.30;99.90;;;;;;5006369;28;20454;-60
2021/01/29 13:48:27;;;;;;;2.90;1.07;;;11.30;99.90;;;;;;5011172;28;20452;-60
2021/01/29 13:50:56;;;;;;;1.87;0.27;;;11.30;99.90;;;;;;5011911;28;20437;-61
2021/01/29 13:53:28;;;;;;;3.40;1.03;;;11.30;99.90;;;;;;5009537;28;20473;-61
2021/01/29 13:56:04;;;;;;;4.73;1.13;;;11.30;99.90;;;;;;5008866;28;20445;-60
2021/01/29 13:58:50;;;;;;;6.00;1.37;;;11.30;99.90;;;;;;5006172;28;20448;-62